createdAt,value
2022-08-29T00:01:11.610Z,19.01
2022-08-29T00:03:39.637Z,18.98
2022-08-29T00:06:07.984Z,18.99
2022-08-29T00:08:35.316Z,18.99
2022-08-29T00:11:02.536Z,18.98
2022-08-29T00:13:29.936Z,18.96
2022-08-29T00:15:56.790Z,18.93
2022-08-29T00:18:23.782Z,18.93
2022-08-29T00:20:51.324Z,18.94
2022-08-29T00:23:18.391Z,18.92
2022-08-29T00:25:45.938Z,18.93
2022-08-29T00:28:13.272Z,18.91
2022-08-29T00:30:41.686Z,18.93
2022-08-29T00:33:09.006Z,18.92
2022-08-29T00:35:40.637Z,18.91
2022-08-29T00:38:10.803Z,18.88
2022-08-29T00:40:51.454Z,18.86
2022-08-29T00:43:28.843Z,18.83
2022-08-29T00:46:46.561Z,18.78
2022-08-29T00:49:24.962Z,18.72
2022-08-29T00:51:53.566Z,18.68
2022-08-29T00:54:22.603Z,18.67
2022-08-29T00:56:53.313Z,18.65
2022-08-29T00:59:40.988Z,18.59
2022-08-29T01:02:11.245Z,18.54
2022-08-29T01:04:39.558Z,18.49
2022-08-29T01:07:09.196Z,18.46
2022-08-29T01:09:42.908Z,18.42
2022-08-29T01:12:16.665Z,18.34
2022-08-29T01:14:50.261Z,18.32
2022-08-29T01:17:33.744Z,18.27
2022-08-29T01:20:20.059Z,18.22
2022-08-29T01:23:39.092Z,18.17
2022-08-29T01:26:07.362Z,18.10
2022-08-29T01:28:45.820Z,18.08
2022-08-29T01:31:37.261Z,18.03
2022-08-29T01:34:12.046Z,18.00
2022-08-29T01:37:03.208Z,17.99
2022-08-29T01:39:41.540Z,17.99
2022-08-29T01:42:24.013Z,17.99
2022-08-29T01:44:58.771Z,17.98
2022-08-29T01:47:31.807Z,17.97
2022-08-29T01:49:58.659Z,17.94
2022-08-29T01:52:25.490Z,17.87
2022-08-29T01:54:52.362Z,17.86
2022-08-29T01:57:19.469Z,17.82
2022-08-29T01:59:47.505Z,17.81
2022-08-29T02:02:26.463Z,17.77
2022-08-29T02:04:56.311Z,17.74
2022-08-29T02:07:25.201Z,17.72
2022-08-29T02:09:53.173Z,17.72
2022-08-29T02:12:20.887Z,17.70
2022-08-29T02:14:50.603Z,17.70
2022-08-29T02:17:18.015Z,17.68
2022-08-29T02:19:45.965Z,17.68
2022-08-29T02:22:13.806Z,17.66
2022-08-29T02:24:42.019Z,17.64
2022-08-29T02:27:10.332Z,17.64
2022-08-29T02:29:38.491Z,17.63
2022-08-29T02:32:12.950Z,17.63
2022-08-29T02:34:44.750Z,17.61
2022-08-29T02:37:15.895Z,17.56
2022-08-29T02:39:42.812Z,17.55
2022-08-29T02:42:09.647Z,17.53
2022-08-29T02:44:37.933Z,17.50
2022-08-29T02:47:07.557Z,17.46
2022-08-29T02:49:34.603Z,17.41
2022-08-29T02:52:04.539Z,17.39
2022-08-29T02:54:31.313Z,17.34
2022-08-29T02:56:58.109Z,17.34
2022-08-29T02:59:24.900Z,17.33
2022-08-29T03:01:53.551Z,17.31
2022-08-29T03:04:20.496Z,17.33
2022-08-29T03:06:47.360Z,17.34
2022-08-29T03:09:14.218Z,17.34
2022-08-29T03:11:41.018Z,17.34
2022-08-29T03:14:08.280Z,17.34
2022-08-29T03:16:35.170Z,17.35
2022-08-29T03:19:02.263Z,17.35
2022-08-29T03:21:29.057Z,17.36
2022-08-29T03:23:56.505Z,17.37
2022-08-29T03:26:25.678Z,17.37
2022-08-29T03:28:52.970Z,17.36
2022-08-29T03:31:21.474Z,17.39
2022-08-29T03:33:48.805Z,17.38
2022-08-29T03:36:15.671Z,17.39
2022-08-29T03:38:46.457Z,17.38
2022-08-29T03:41:22.700Z,17.36
2022-08-29T03:43:49.925Z,17.34
2022-08-29T03:46:16.815Z,17.32
2022-08-29T03:48:43.843Z,17.26
2022-08-29T03:51:10.797Z,17.23
2022-08-29T03:53:37.573Z,17.20
2022-08-29T03:56:06.128Z,17.14
2022-08-29T03:58:34.257Z,17.06
2022-08-29T04:01:01.878Z,17.02
2022-08-29T04:03:31.478Z,16.96
2022-08-29T04:05:59.194Z,16.92
2022-08-29T04:08:28.164Z,16.87
2022-08-29T04:10:55.065Z,16.84
2022-08-29T04:13:21.953Z,16.81
2022-08-29T04:15:48.762Z,16.80
2022-08-29T04:18:15.917Z,16.79
2022-08-29T04:20:48.517Z,16.77
2022-08-29T04:23:15.797Z,16.79
2022-08-29T04:25:44.154Z,16.81
2022-08-29T04:28:14.671Z,16.82
2022-08-29T04:30:51.852Z,16.81
2022-08-29T04:33:23.495Z,16.80
2022-08-29T04:35:52.653Z,16.78
2022-08-29T04:38:20.510Z,16.77
2022-08-29T04:40:47.748Z,16.74
2022-08-29T04:43:14.866Z,16.74
2022-08-29T04:45:42.333Z,16.70
2022-08-29T04:48:10.980Z,16.68
2022-08-29T04:50:38.255Z,16.64
2022-08-29T04:53:05.199Z,16.62
2022-08-29T04:55:33.014Z,16.60
2022-08-29T04:58:00.220Z,16.57
2022-08-29T05:00:30.314Z,16.55
2022-08-29T05:02:58.293Z,16.54
2022-08-29T05:05:25.694Z,16.54
2022-08-29T05:07:52.511Z,16.54
2022-08-29T05:10:24.763Z,16.57
2022-08-29T05:12:51.605Z,16.58
2022-08-29T05:15:18.674Z,16.60
2022-08-29T05:17:45.910Z,16.63
2022-08-29T05:20:13.494Z,16.65
2022-08-29T05:22:42.137Z,16.68
2022-08-29T05:25:17.317Z,16.73
2022-08-29T05:27:45.731Z,16.78
2022-08-29T05:30:12.638Z,16.85
2022-08-29T05:32:39.456Z,16.91
2022-08-29T05:35:06.605Z,16.99
2022-08-29T05:37:33.787Z,17.08
2022-08-29T05:40:00.703Z,17.18
2022-08-29T05:42:27.615Z,17.31
2022-08-29T05:44:54.465Z,17.41
2022-08-29T05:47:21.569Z,17.54
2022-08-29T05:49:50.068Z,17.69
2022-08-29T05:52:20.848Z,17.87
2022-08-29T05:54:48.391Z,18.01
2022-08-29T05:57:19.933Z,18.20
2022-08-29T05:59:52.805Z,18.38
2022-08-29T06:02:22.485Z,18.56
2022-08-29T06:04:49.939Z,18.74
2022-08-29T06:07:16.721Z,18.91
2022-08-29T06:09:44.809Z,19.09
2022-08-29T06:12:15.419Z,19.24
2022-08-29T06:14:50.585Z,19.40
2022-08-29T06:17:18.386Z,19.53
2022-08-29T06:19:45.666Z,19.66
2022-08-29T06:22:12.898Z,19.78
2022-08-29T06:24:39.981Z,19.85
2022-08-29T06:27:12.911Z,19.93
2022-08-29T06:29:43.289Z,20.04
2022-08-29T06:32:12.379Z,20.13
2022-08-29T06:34:39.530Z,20.21
2022-08-29T06:37:06.438Z,20.32
2022-08-29T06:39:33.560Z,20.43
2022-08-29T06:42:00.503Z,20.53
2022-08-29T06:44:30.712Z,20.64
2022-08-29T06:46:58.722Z,20.76
2022-08-29T06:49:26.180Z,20.86
2022-08-29T06:51:57.661Z,21.01
2022-08-29T06:54:27.879Z,21.19
2022-08-29T06:56:56.775Z,21.45
2022-08-29T06:59:23.627Z,21.82
2022-08-29T07:01:50.650Z,22.29
2022-08-29T07:04:20.990Z,22.81
2022-08-29T07:06:48.921Z,23.45
2022-08-29T07:09:16.374Z,24.14
2022-08-29T07:11:43.584Z,24.84
2022-08-29T07:14:12.025Z,25.46
2022-08-29T07:16:40.215Z,26.08
2022-08-29T07:19:08.747Z,26.69
2022-08-29T07:21:36.856Z,27.35
2022-08-29T07:24:04.976Z,27.95
2022-08-29T07:26:36.986Z,28.50
2022-08-29T07:29:10.081Z,28.98
2022-08-29T07:31:39.341Z,29.32
2022-08-29T07:34:07.819Z,29.67
2022-08-29T07:36:35.512Z,30.00
2022-08-29T07:39:08.714Z,30.32
2022-08-29T07:41:37.844Z,30.65
2022-08-29T07:44:05.465Z,30.94
2022-08-29T07:46:32.477Z,31.28
2022-08-29T07:49:00.535Z,31.68
2022-08-29T07:51:29.099Z,32.03
2022-08-29T07:53:57.410Z,32.40
2022-08-29T07:56:28.609Z,32.77
2022-08-29T07:58:57.962Z,33.08
2022-08-29T08:01:25.878Z,33.22
2022-08-29T08:03:54.203Z,33.32
2022-08-29T08:06:27.353Z,33.44
2022-08-29T08:08:59.656Z,33.59
2022-08-29T08:11:27.551Z,33.75
2022-08-29T08:13:59.924Z,33.87
2022-08-29T08:16:29.457Z,34.02
2022-08-29T08:18:57.811Z,34.12
2022-08-29T08:21:26.353Z,34.21
2022-08-29T08:23:55.657Z,34.34
2022-08-29T08:26:23.465Z,34.43
2022-08-29T08:28:51.788Z,34.44
2022-08-29T08:31:20.686Z,34.43
2022-08-29T08:33:48.017Z,34.36
2022-08-29T08:36:17.695Z,34.29
2022-08-29T08:38:48.792Z,34.18
2022-08-29T08:41:27.606Z,34.07
2022-08-29T08:44:07.054Z,33.96
2022-08-29T08:46:38.795Z,33.89
2022-08-29T08:49:16.913Z,33.91
2022-08-29T08:51:53.076Z,34.06
2022-08-29T08:54:33.186Z,34.34
2022-08-29T08:57:12.622Z,34.64
2022-08-29T08:59:44.456Z,34.91
2022-08-29T09:02:54.512Z,35.16
2022-08-29T09:06:12.260Z,35.37
2022-08-29T09:09:10.229Z,35.61
2022-08-29T09:12:32.542Z,35.94
2022-08-29T09:15:22.292Z,36.41
2022-08-29T09:18:23.857Z,36.70
2022-08-29T09:20:56.918Z,36.85
2022-08-29T09:23:54.355Z,36.77
2022-08-29T09:26:24.155Z,36.56
2022-08-29T09:28:51.273Z,36.10
2022-08-29T09:31:22.845Z,35.47
2022-08-29T09:34:02.480Z,34.97
2022-08-29T09:36:48.434Z,34.85
2022-08-29T09:39:28.480Z,35.14
2022-08-29T09:42:14.001Z,35.49
2022-08-29T09:44:58.449Z,35.69
2022-08-29T09:47:29.813Z,35.73
2022-08-29T09:50:04.985Z,35.64
2022-08-29T09:52:32.189Z,35.58
2022-08-29T09:55:24.495Z,35.60
2022-08-29T09:58:07.789Z,35.61
2022-08-29T10:00:40.425Z,35.63
2022-08-29T10:03:18.867Z,35.52
2022-08-29T10:05:47.753Z,35.31
2022-08-29T10:09:10.908Z,34.89
2022-08-29T10:12:12.630Z,34.58
2022-08-29T10:15:02.271Z,34.26
2022-08-29T10:18:05.686Z,34.04
2022-08-29T10:21:18.326Z,34.04
2022-08-29T10:23:59.828Z,34.20
2022-08-29T10:27:04.409Z,34.13
2022-08-29T10:29:39.973Z,33.87
2022-08-29T10:32:39.580Z,33.40
2022-08-29T10:35:32.842Z,33.07
2022-08-29T10:38:10.324Z,33.00
2022-08-29T10:40:58.480Z,33.04
2022-08-29T10:43:40.193Z,33.15
2022-08-29T10:46:43.870Z,33.26
2022-08-29T10:49:36.514Z,33.47
2022-08-29T10:52:38.105Z,33.75
2022-08-29T10:55:18.922Z,34.06
2022-08-29T10:58:26.359Z,34.41
2022-08-29T11:01:09.412Z,34.63
2022-08-29T11:03:48.598Z,34.88
2022-08-29T11:06:26.707Z,35.22
2022-08-29T11:09:25.395Z,35.48
2022-08-29T11:12:23.909Z,35.78
2022-08-29T11:15:09.228Z,36.08
2022-08-29T11:17:40.935Z,36.49
2022-08-29T11:20:19.541Z,36.98
2022-08-29T11:23:27.571Z,37.31
2022-08-29T11:25:58.109Z,37.26
2022-08-29T11:28:52.583Z,37.12
2022-08-29T11:31:32.435Z,37.03
2022-08-29T11:34:39.331Z,36.96
2022-08-29T11:37:23.905Z,36.77
2022-08-29T11:40:48.807Z,36.70
2022-08-29T11:43:44.557Z,36.70
2022-08-29T11:46:53.461Z,36.51
2022-08-29T11:49:36.997Z,36.35
2022-08-29T11:52:22.318Z,36.18
2022-08-29T11:54:59.469Z,35.83
2022-08-29T11:57:45.695Z,35.39
2022-08-29T12:00:55.789Z,34.98
2022-08-29T12:03:44.861Z,34.66
2022-08-29T12:06:32.883Z,34.35
2022-08-29T12:09:14.616Z,34.10
2022-08-29T12:12:10.341Z,33.91
2022-08-29T12:14:49.195Z,33.83
2022-08-29T12:17:51.182Z,33.57
2022-08-29T12:20:35.563Z,33.17
2022-08-29T12:23:15.778Z,32.96
2022-08-29T12:25:55.218Z,32.83
2022-08-29T12:28:59.115Z,32.68
2022-08-29T12:32:32.594Z,32.49
2022-08-29T12:35:32.889Z,32.36
2022-08-29T12:38:42.032Z,32.20
2022-08-29T12:41:27.493Z,32.05
2022-08-29T12:44:01.273Z,31.91
2022-08-29T12:46:34.092Z,31.82
2022-08-29T12:49:27.520Z,31.77
2022-08-29T12:52:03.162Z,31.72
2022-08-29T12:54:46.036Z,31.66
2022-08-29T12:57:34.609Z,31.63
2022-08-29T13:00:08.338Z,31.50
2022-08-29T13:02:38.152Z,31.34
2022-08-29T13:05:23.407Z,31.15
2022-08-29T13:08:02.344Z,31.01
2022-08-29T13:10:30.137Z,30.86
2022-08-29T13:13:13.873Z,30.72
2022-08-29T13:15:41.460Z,30.62
2022-08-29T13:18:16.391Z,30.59
2022-08-29T13:21:03.176Z,30.58
2022-08-29T13:24:11.277Z,30.54
2022-08-29T13:27:06.459Z,30.53
2022-08-29T13:29:37.730Z,30.54
2022-08-29T13:32:26.878Z,30.52
2022-08-29T13:35:06.227Z,30.50
2022-08-29T13:37:39.082Z,30.41
2022-08-29T13:40:31.884Z,30.35
2022-08-29T13:43:01.140Z,30.37
2022-08-29T13:45:28.810Z,30.35
2022-08-29T13:48:15.550Z,30.34
2022-08-29T13:50:42.351Z,30.32
2022-08-29T13:53:09.311Z,30.26
2022-08-29T13:55:36.626Z,30.20
2022-08-29T13:58:04.464Z,30.12
2022-08-29T14:00:35.384Z,30.03
2022-08-29T14:03:06.335Z,29.94
2022-08-29T14:05:35.209Z,29.91
2022-08-29T14:08:05.524Z,29.88
2022-08-29T14:10:32.537Z,29.87
2022-08-29T14:12:59.600Z,29.84
2022-08-29T14:15:26.674Z,29.81
2022-08-29T14:17:56.886Z,29.77
2022-08-29T14:20:42.724Z,29.69
2022-08-29T14:23:09.669Z,29.61
2022-08-29T14:25:36.456Z,29.58
2022-08-29T14:28:04.057Z,29.57
2022-08-29T14:30:31.037Z,29.57
2022-08-29T14:32:57.816Z,29.56
2022-08-29T14:35:26.442Z,29.48
2022-08-29T14:38:00.195Z,29.36
2022-08-29T14:40:28.797Z,29.26
2022-08-29T14:42:57.222Z,29.22
2022-08-29T14:45:24.360Z,29.22
2022-08-29T14:47:51.522Z,29.23
2022-08-29T14:50:18.910Z,29.24
2022-08-29T14:52:46.065Z,29.24
2022-08-29T14:55:14.153Z,29.23
2022-08-29T14:57:49.560Z,29.23
2022-08-29T15:00:27.937Z,29.23
2022-08-29T15:02:55.276Z,29.25
2022-08-29T15:05:22.496Z,29.26
2022-08-29T15:07:49.986Z,29.29
2022-08-29T15:13:17.502Z,29.25
2022-08-29T15:15:44.429Z,29.18
2022-08-29T15:19:31.595Z,29.07
2022-08-29T15:21:25.938Z,28.94
2022-08-29T15:23:53.611Z,28.86
2022-08-29T15:26:24.142Z,28.77
2022-08-29T15:28:51.134Z,28.69
2022-08-29T15:31:18.067Z,28.65
2022-08-29T15:33:44.907Z,28.62
2022-08-29T15:36:11.747Z,28.57
2022-08-29T15:38:38.734Z,28.55
2022-08-29T15:41:05.749Z,28.49
2022-08-29T15:43:32.544Z,28.43
2022-08-29T15:46:02.832Z,28.35
2022-08-29T15:48:30.940Z,28.30
2022-08-29T15:51:04.449Z,28.26
2022-08-29T15:53:31.357Z,28.23
2022-08-29T15:55:58.562Z,28.22
2022-08-29T15:58:25.396Z,28.22
2022-08-29T16:00:56.200Z,28.32
2022-08-29T16:03:23.132Z,28.26
2022-08-29T16:05:49.955Z,28.18
2022-08-29T16:08:17.633Z,28.11
2022-08-29T16:10:46.427Z,28.09
2022-08-29T16:13:13.248Z,28.07
2022-08-29T16:15:40.465Z,28.05
2022-08-29T16:18:07.532Z,28.03
2022-08-29T16:20:37.987Z,28.03
2022-08-29T16:23:05.957Z,28.02
2022-08-29T16:25:33.938Z,27.99
2022-08-29T16:28:03.509Z,27.97
2022-08-29T16:30:33.639Z,27.94
2022-08-29T16:33:01.634Z,27.90
2022-08-29T16:35:28.468Z,27.88
2022-08-29T16:38:02.469Z,27.85
2022-08-29T16:40:34.232Z,27.83
2022-08-29T16:43:03.954Z,27.82
2022-08-29T16:45:32.598Z,27.81
2022-08-29T16:47:59.837Z,27.81
2022-08-29T16:50:28.129Z,27.84
2022-08-29T16:52:55.683Z,27.83
2022-08-29T16:55:22.672Z,27.80
2022-08-29T16:58:08.254Z,27.75
2022-08-29T17:00:35.191Z,27.68
2022-08-29T17:03:02.700Z,27.60
2022-08-29T17:05:30.537Z,27.54
2022-08-29T17:07:57.383Z,27.46
2022-08-29T17:10:24.126Z,27.38
2022-08-29T17:12:51.030Z,27.31
2022-08-29T17:15:17.813Z,27.23
2022-08-29T17:17:45.210Z,27.17
2022-08-29T17:20:12.895Z,27.12
2022-08-29T17:22:39.808Z,27.07
2022-08-29T17:25:07.682Z,27.03
2022-08-29T17:27:34.489Z,26.97
2022-08-29T17:30:03.788Z,26.90
2022-08-29T17:32:30.975Z,26.83
2022-08-29T17:34:57.744Z,26.77
2022-08-29T17:37:24.540Z,26.70
2022-08-29T17:39:51.390Z,26.64
2022-08-29T17:42:18.198Z,26.58
2022-08-29T17:44:46.853Z,26.54
2022-08-29T17:47:13.694Z,26.47
2022-08-29T17:49:40.602Z,26.41
2022-08-29T17:52:07.703Z,26.35
2022-08-29T17:54:34.862Z,26.31
2022-08-29T17:57:02.090Z,26.25
2022-08-29T17:59:34.476Z,26.21
2022-08-29T18:02:02.705Z,26.13
2022-08-29T18:04:29.741Z,26.04
2022-08-29T18:06:57.811Z,26.01
2022-08-29T18:09:25.517Z,26.21
2022-08-29T18:11:54.362Z,26.10
2022-08-29T18:14:24.077Z,25.96
2022-08-29T18:17:05.838Z,25.85
2022-08-29T18:19:34.902Z,25.78
2022-08-29T18:22:02.324Z,25.72
2022-08-29T18:24:29.179Z,25.64
2022-08-29T18:26:56.036Z,25.60
2022-08-29T18:29:32.682Z,25.53
2022-08-29T18:32:00.876Z,25.45
2022-08-29T18:34:30.489Z,25.40
2022-08-29T18:37:23.230Z,25.27
2022-08-29T18:39:50.832Z,25.21
2022-08-29T18:42:40.082Z,25.14
2022-08-29T18:45:09.178Z,25.05
2022-08-29T18:47:37.165Z,25.01
2022-08-29T18:50:26.017Z,24.95
2022-08-29T18:53:04.443Z,24.90
2022-08-29T18:55:56.316Z,24.81
2022-08-29T18:58:33.500Z,24.78
2022-08-29T19:01:12.124Z,24.69
2022-08-29T19:03:40.240Z,24.67
2022-08-29T19:06:07.464Z,24.67
2022-08-29T19:08:38.067Z,24.65
2022-08-29T19:11:13.797Z,24.62
2022-08-29T19:13:41.577Z,24.58
2022-08-29T19:16:17.433Z,24.55
2022-08-29T19:18:48.521Z,24.52
2022-08-29T19:21:16.247Z,24.47
2022-08-29T19:23:51.957Z,24.44
2022-08-29T19:26:52.531Z,24.36
2022-08-29T19:29:19.682Z,24.33
2022-08-29T19:31:46.655Z,24.29
2022-08-29T19:34:13.842Z,24.26
2022-08-29T19:36:42.916Z,24.20
2022-08-29T19:39:13.934Z,24.16
2022-08-29T19:41:40.681Z,24.13
2022-08-29T19:44:09.085Z,24.08
2022-08-29T19:46:41.205Z,24.05
2022-08-29T19:49:20.268Z,24.01
2022-08-29T19:52:00.439Z,23.99
2022-08-29T19:54:29.102Z,23.95
2022-08-29T19:57:24.557Z,23.92
2022-08-29T19:59:57.435Z,23.88
2022-08-29T20:02:26.930Z,23.89
2022-08-29T20:04:54.395Z,23.87
2022-08-29T20:07:21.425Z,23.87
2022-08-29T20:09:49.188Z,23.85
2022-08-29T20:12:16.259Z,23.85
2022-08-29T20:14:43.355Z,23.84
2022-08-29T20:17:11.651Z,23.84
2022-08-29T20:19:39.622Z,23.84
2022-08-29T20:22:07.154Z,23.83
2022-08-29T20:24:34.871Z,23.82
2022-08-29T20:27:03.442Z,23.82
2022-08-29T20:29:31.919Z,23.82
2022-08-29T20:32:17.711Z,23.84
2022-08-29T20:34:45.282Z,23.83
2022-08-29T20:37:14.115Z,23.82
2022-08-29T20:39:46.405Z,23.81
2022-08-29T20:42:21.338Z,23.79
2022-08-29T20:44:48.519Z,23.78
2022-08-29T20:47:19.710Z,23.75
2022-08-29T20:49:49.151Z,23.74
2022-08-29T20:52:19.808Z,23.70
2022-08-29T20:54:47.868Z,23.63
2022-08-29T20:57:15.104Z,23.60
2022-08-29T20:59:42.971Z,23.57
2022-08-29T21:02:10.932Z,23.55
2022-08-29T21:04:57.440Z,23.53
2022-08-29T21:07:25.477Z,23.47
2022-08-29T21:10:07.988Z,23.47
2022-08-29T21:12:37.822Z,23.45
2022-08-29T21:15:05.900Z,23.44
2022-08-29T21:17:36.332Z,23.45
2022-08-29T21:20:04.294Z,23.45
2022-08-29T21:22:34.895Z,23.47
2022-08-29T21:25:02.796Z,23.46
2022-08-29T21:27:30.838Z,23.47
2022-08-29T21:29:58.667Z,23.47
2022-08-29T21:32:29.232Z,23.49
2022-08-29T21:34:56.068Z,23.47
2022-08-29T21:37:24.450Z,23.47
2022-08-29T21:39:51.266Z,23.47
2022-08-29T21:42:18.375Z,23.47
2022-08-29T21:44:45.188Z,23.45
2022-08-29T21:47:14.824Z,23.43
2022-08-29T21:49:44.437Z,23.41
2022-08-29T21:52:11.363Z,23.40
2022-08-29T21:54:38.154Z,23.38
2022-08-29T21:57:05.128Z,23.33
2022-08-29T21:59:32.585Z,23.28
2022-08-29T22:01:59.433Z,23.25
2022-08-29T22:04:28.430Z,23.21
2022-08-29T22:06:57.478Z,23.15
2022-08-29T22:09:25.548Z,23.12
2022-08-29T22:11:52.304Z,23.09
2022-08-29T22:14:19.121Z,23.06
2022-08-29T22:16:45.963Z,23.04
2022-08-29T22:19:16.670Z,23.02
2022-08-29T22:21:51.749Z,23.01
2022-08-29T22:24:18.924Z,22.96
2022-08-29T22:26:46.627Z,22.96
2022-08-29T22:29:15.884Z,22.97
2022-08-29T22:31:44.718Z,22.97
2022-08-29T22:34:14.744Z,22.98
2022-08-29T22:36:41.872Z,22.96
2022-08-29T22:39:10.166Z,22.95
2022-08-29T22:41:37.602Z,22.94
2022-08-29T22:46:54.139Z,22.91
2022-08-29T22:49:21.207Z,22.92
2022-08-29T22:51:48.928Z,22.93
2022-08-29T22:54:34.399Z,22.94
2022-08-29T22:57:04.395Z,22.94
2022-08-29T22:59:32.386Z,22.93
2022-08-29T23:02:01.277Z,22.95
2022-08-29T23:04:29.941Z,22.96
2022-08-29T23:06:57.423Z,22.94
2022-08-29T23:09:24.522Z,22.94
2022-08-29T23:11:51.819Z,22.89
2022-08-29T23:14:20.810Z,22.86
2022-08-29T23:16:48.604Z,22.82
2022-08-29T23:19:16.048Z,22.75
2022-08-29T23:21:43.695Z,22.72
2022-08-29T23:24:10.471Z,22.67
2022-08-29T23:26:37.384Z,22.65
2022-08-29T23:29:05.147Z,22.60
2022-08-29T23:31:32.201Z,22.55
2022-08-29T23:33:58.994Z,22.49
2022-08-29T23:36:25.835Z,22.42
2022-08-29T23:38:52.847Z,22.38
2022-08-29T23:41:20.019Z,22.31
2022-08-29T23:43:46.774Z,22.26
2022-08-29T23:46:13.635Z,22.21
2022-08-29T23:48:40.656Z,22.14
2022-08-29T23:51:10.761Z,22.10
2022-08-29T23:53:38.441Z,22.03
2022-08-29T23:56:17.116Z,21.96
2022-08-29T23:58:43.872Z,21.88
